Aérodrome :
LOGIN :

S'inscrire | Disclaimer

   EN    FR    IT 

 










Légende :    VFR   VFR Marginal   IFR   IFR Intensif   IFR Très Intensif
Visi : 
Plafond : 
>= 8 km
>= 3000ft
5 à 8 km
1000 à 3000 ft
1500m à 5 km
500 à 1000 ft
800 à 1500m
200 à 500 ft
< 800m
< 200 ft
Symboles :   Orages  Brouillard  Fortes neiges  Fortes précipitations  Vent > 20 kt
SIGMETs :   Divers  Orages  Givrage  Turbulence  Onde Orograph.  Cendres Volcan.






- Altitude de l'aérodrome : 240 ft
- Code IATA : VLC


LEVC - Valencia Manises

DERNIER METAR :
  • 290800Z VRB02KT CAVOK 24/11 Q1017 NOSIG

METARs EXPIRÉS :
  • 290730Z 24003KT 160V320 CAVOK 22/11 Q1018 NOSIG
  • 290700Z 25003KT 200V300 CAVOK 20/11 Q1018 NOSIG
  • 290630Z 31004KT CAVOK 19/11 Q1018 NOSIG
  • 290600Z VRB02KT CAVOK 18/11 Q1018 NOSIG
  • 290530Z 27005KT 250V310 CAVOK 15/12 Q1019 NOSIG

TAF TAF LEVC
Valide du 29 à 06h jusqu'au 30 à 06h UTC


290500Z 2906/3006 VRB04KT CAVOK TX30/2912Z TN13/2906Z
BECMG 2909/2911 12012KT
BECMG 2918/2920 VRB04KT



MET'MAP, la Météo Aéronautique d'un coup d'oeil ! - Copyright ORBIFLY Décembre 2007 - Disclaimer

ORBIFLY MET'MAP TEAM :

Programmation & Développement : Alexandra Zaïnal
Sur une idée originale de : Baudouin d'Aumeries
Assistance à la programmation : Marc-Olivier Méhu
Soutien technique & logistique : Manuel Goepfert

Contact : metmap@orbifly.com




SOURCES & CREDITS :

   NOAA